createdAt,value
2018-09-18T00:01:01.261Z,97876.80
2018-09-18T00:03:30.540Z,97878.62
2018-09-18T00:05:59.864Z,97879.43
2018-09-18T00:08:29.127Z,97883.16
2018-09-18T00:10:58.451Z,97881.27
2018-09-18T00:13:27.718Z,97880.52
2018-09-18T00:15:56.966Z,97882.66
2018-09-18T00:18:26.394Z,97880.23
2018-09-18T00:20:55.618Z,97879.68
2018-09-18T00:23:24.858Z,97880.23
2018-09-18T00:25:54.086Z,97881.33
2018-09-18T00:28:23.404Z,97874.38
2018-09-18T00:30:52.614Z,97873.58
2018-09-18T00:33:21.825Z,97867.67
2018-09-18T00:35:51.049Z,97864.70
2018-09-18T00:38:20.279Z,97859.87
2018-09-18T00:40:49.490Z,97856.34
2018-09-18T00:43:18.689Z,97866.50
2018-09-18T00:45:47.975Z,97863.30
2018-09-18T00:48:17.189Z,97857.39
2018-09-18T00:50:46.457Z,97853.95
2018-09-18T00:53:15.711Z,97856.89
2018-09-18T00:55:44.945Z,97852.08
2018-09-18T00:58:14.188Z,97855.56
2018-09-18T01:00:43.437Z,97860.10
2018-09-18T01:03:19.452Z,97853.95
2018-09-18T01:05:48.725Z,97848.84
2018-09-18T01:08:17.937Z,97851.00
2018-09-18T01:10:47.173Z,97854.07
2018-09-18T01:13:16.466Z,97859.17
2018-09-18T01:15:45.462Z,97854.36
2018-09-18T01:18:14.718Z,97857.36
2018-09-18T01:20:43.990Z,97855.48
2018-09-18T01:23:13.190Z,97854.38
2018-09-18T01:25:42.445Z,97850.91
2018-09-18T01:28:11.650Z,97852.22
2018-09-18T01:30:40.894Z,97853.28
2018-09-18T01:33:10.134Z,97851.37
2018-09-18T01:35:39.350Z,97856.23
2018-09-18T01:38:08.633Z,97850.60
2018-09-18T01:40:37.906Z,97853.01
2018-09-18T01:43:07.218Z,97852.98
2018-09-18T01:45:36.473Z,97852.48
2018-09-18T01:48:05.799Z,97852.97
2018-09-18T01:50:35.071Z,97854.00
2018-09-18T01:53:04.341Z,97848.91
2018-09-18T01:55:33.632Z,97854.00
2018-09-18T01:58:02.931Z,97856.42
2018-09-18T02:00:32.205Z,97851.63
2018-09-18T02:03:01.462Z,97852.41
2018-09-18T02:05:30.776Z,97847.56
2018-09-18T02:08:00.058Z,97845.20
2018-09-18T02:10:29.389Z,97847.38
2018-09-18T02:12:58.723Z,97844.22
2018-09-18T02:15:28.025Z,97846.09
2018-09-18T02:17:57.314Z,97839.41
2018-09-18T02:20:26.586Z,97841.28
2018-09-18T02:22:55.865Z,97845.55
2018-09-18T02:25:25.099Z,97837.83
2018-09-18T02:27:54.545Z,97850.72
2018-09-18T02:30:23.802Z,97844.56
2018-09-18T02:32:53.066Z,97852.02
2018-09-18T02:35:22.317Z,97842.66
2018-09-18T02:37:51.593Z,97842.39
2018-09-18T02:40:20.813Z,97843.50
2018-09-18T02:42:50.031Z,97847.53
2018-09-18T02:45:19.266Z,97845.39
2018-09-18T02:47:48.485Z,97839.45
2018-09-18T02:50:17.702Z,97838.94
2018-09-18T02:52:46.946Z,97843.98
2018-09-18T02:55:16.156Z,97841.59
2018-09-18T02:57:45.435Z,97838.64
2018-09-18T03:00:14.686Z,97841.05
2018-09-18T03:02:43.906Z,97841.05
2018-09-18T03:05:13.274Z,97837.05
2018-09-18T03:07:42.521Z,97839.75
2018-09-18T03:10:11.804Z,97844.00
2018-09-18T03:12:41.043Z,97845.90
2018-09-18T03:15:10.279Z,97843.20
2018-09-18T03:17:39.521Z,97841.06
2018-09-18T03:20:08.750Z,97839.20
2018-09-18T03:22:37.958Z,97842.39
2018-09-18T03:25:07.171Z,97844.00
2018-09-18T03:27:36.407Z,97844.80
2018-09-18T03:30:05.800Z,97840.53
2018-09-18T03:32:35.027Z,97836.77
2018-09-18T03:35:04.218Z,97838.91
2018-09-18T03:37:33.449Z,97842.14
2018-09-18T03:40:02.653Z,97842.66
2018-09-18T03:42:31.907Z,97849.60
2018-09-18T03:45:01.153Z,97837.30
2018-09-18T03:47:30.433Z,97846.13
2018-09-18T03:49:59.679Z,97842.38
2018-09-18T03:52:28.982Z,97842.91
2018-09-18T03:54:58.253Z,97841.55
2018-09-18T03:57:27.987Z,97840.22
2018-09-18T03:59:57.221Z,97841.25
2018-09-18T04:02:26.454Z,97840.98
2018-09-18T04:04:55.701Z,97839.09
2018-09-18T04:07:24.995Z,97835.05
2018-09-18T04:09:54.268Z,97833.95
2018-09-18T04:12:23.580Z,97839.55
2018-09-18T04:14:52.854Z,97838.21
2018-09-18T04:17:23.028Z,97838.74
2018-09-18T04:19:52.326Z,97838.44
2018-09-18T04:22:21.588Z,97841.92
2018-09-18T04:24:50.825Z,97835.27
2018-09-18T04:27:20.071Z,97834.73
2018-09-18T04:29:49.307Z,97836.59
2018-09-18T04:32:18.614Z,97834.50
2018-09-18T04:34:47.842Z,97833.19
2018-09-18T04:37:17.131Z,97834.75
2018-09-18T04:39:46.417Z,97830.39
2018-09-18T04:42:15.799Z,97834.39
2018-09-18T04:44:45.103Z,97840.80
2018-09-18T04:47:14.425Z,97840.77
2018-09-18T04:49:43.712Z,97841.27
2018-09-18T04:52:12.994Z,97840.21
2018-09-18T04:54:42.287Z,97840.14
2018-09-18T04:57:11.569Z,97841.44
2018-09-18T04:59:41.250Z,97844.36
2018-09-18T05:02:11.192Z,97844.61
2018-09-18T05:04:40.373Z,97843.84
2018-09-18T05:07:09.661Z,97842.22
2018-09-18T05:09:38.930Z,97864.58
2018-09-18T05:12:08.194Z,97845.70
2018-09-18T05:14:37.473Z,97849.78
2018-09-18T05:17:06.770Z,97854.61
2018-09-18T05:19:36.114Z,97851.42
2018-09-18T05:22:05.524Z,97859.42
2018-09-18T05:24:34.939Z,97864.26
2018-09-18T05:27:05.312Z,97863.47
2018-09-18T05:29:34.647Z,97861.36
2018-09-18T05:32:03.898Z,97868.88
2018-09-18T05:34:33.163Z,97867.27
2018-09-18T05:37:02.400Z,97858.44
2018-09-18T05:39:31.728Z,97865.69
2018-09-18T05:42:01.082Z,97863.28
2018-09-18T05:44:30.333Z,97869.23
2018-09-18T05:46:59.627Z,97868.95
2018-09-18T05:49:30.234Z,97873.22
2018-09-18T05:51:59.917Z,97876.19
2018-09-18T05:54:29.256Z,97879.93
2018-09-18T05:56:58.534Z,97881.48
2018-09-18T05:59:27.854Z,97876.36
2018-09-18T06:01:57.167Z,97880.88
2018-09-18T06:04:26.541Z,97882.72
2018-09-18T06:06:55.792Z,97886.45
2018-09-18T06:09:25.144Z,97884.80
2018-09-18T06:11:54.430Z,97882.27
2018-09-18T06:14:23.761Z,97890.86
2018-09-18T06:16:53.022Z,97883.63
2018-09-18T06:19:22.322Z,97883.86
2018-09-18T06:21:51.645Z,97885.71
2018-09-18T06:24:20.949Z,97893.40
2018-09-18T06:26:50.214Z,97895.73
2018-09-18T06:29:19.494Z,97898.84
2018-09-18T06:31:48.713Z,97892.84
2018-09-18T06:34:18.058Z,97901.91
2018-09-18T06:36:47.351Z,97894.08
2018-09-18T06:39:16.654Z,97902.00
2018-09-18T06:41:45.997Z,97900.65
2018-09-18T06:44:15.414Z,97904.80
2018-09-18T06:46:44.673Z,97908.17
2018-09-18T06:49:14.020Z,97907.42
2018-09-18T06:51:43.270Z,97907.55
2018-09-18T06:54:12.533Z,97907.61
2018-09-18T06:56:41.758Z,97911.42
2018-09-18T06:59:10.990Z,97914.41
2018-09-18T07:01:40.274Z,97911.69
2018-09-18T07:04:09.495Z,97909.32
2018-09-18T07:06:38.823Z,97903.84
2018-09-18T07:09:09.107Z,97902.05
2018-09-18T07:11:38.382Z,97912.21
2018-09-18T07:14:07.714Z,97911.09
2018-09-18T07:16:36.985Z,97906.44
2018-09-18T07:19:06.365Z,97904.09
2018-09-18T07:21:36.129Z,97909.25
2018-09-18T07:24:05.363Z,97918.48
2018-09-18T07:26:34.621Z,97915.52
2018-09-18T07:29:03.834Z,97911.23
2018-09-18T07:31:33.199Z,97916.34
2018-09-18T07:34:02.568Z,97907.74
2018-09-18T07:36:31.921Z,97908.74
2018-09-18T07:39:01.187Z,97908.23
2018-09-18T07:41:30.677Z,97910.64
2018-09-18T07:44:00.017Z,97902.58
2018-09-18T07:46:29.402Z,97909.36
2018-09-18T07:49:03.204Z,97909.16
2018-09-18T07:51:33.714Z,97913.31
2018-09-18T07:54:03.344Z,97907.97
2018-09-18T07:56:32.851Z,97901.88
2018-09-18T07:59:02.639Z,97906.52
2018-09-18T08:01:32.857Z,97906.21
2018-09-18T08:04:02.282Z,97906.38
2018-09-18T08:06:31.698Z,97905.95
2018-09-18T08:09:01.160Z,97901.75
2018-09-18T08:11:30.772Z,97897.91
2018-09-18T08:14:00.121Z,97900.74
2018-09-18T08:16:29.442Z,97902.60
2018-09-18T08:18:59.199Z,97901.46
2018-09-18T08:21:28.370Z,97897.68
2018-09-18T08:23:57.571Z,97903.14
2018-09-18T08:26:26.786Z,97904.34
2018-09-18T08:28:56.019Z,97900.73
2018-09-18T08:31:26.288Z,97901.30
2018-09-18T08:33:55.529Z,97914.37
2018-09-18T08:36:24.806Z,97911.42
2018-09-18T08:38:54.051Z,97914.45
2018-09-18T08:41:23.313Z,97917.46
2018-09-18T08:43:52.647Z,97907.45
2018-09-18T08:46:21.829Z,97910.77
2018-09-18T08:48:56.743Z,97909.81
2018-09-18T08:51:26.352Z,97902.32
2018-09-18T08:53:55.603Z,97907.05
2018-09-18T08:56:24.824Z,97914.05
2018-09-18T08:58:54.080Z,97914.90
2018-09-18T09:01:23.489Z,97917.58
2018-09-18T09:03:52.858Z,97916.16
2018-09-18T09:06:22.176Z,97918.66
2018-09-18T09:08:51.492Z,97913.09
2018-09-18T09:11:20.636Z,97921.78
2018-09-18T09:13:49.629Z,97921.97
2018-09-18T09:16:18.781Z,97916.95
2018-09-18T09:18:47.980Z,97916.80
2018-09-18T09:21:17.258Z,97905.59
2018-09-18T09:23:46.459Z,97910.91
2018-09-18T09:26:15.695Z,97907.59
2018-09-18T09:28:44.906Z,97903.17
2018-09-18T09:31:14.352Z,97895.44
2018-09-18T09:33:43.634Z,97901.30
2018-09-18T09:36:12.890Z,97895.75
2018-09-18T09:38:42.469Z,97891.31
2018-09-18T09:41:11.757Z,97893.81
2018-09-18T09:43:41.219Z,97884.27
2018-09-18T09:46:10.486Z,97892.70
2018-09-18T09:48:39.836Z,97890.53
2018-09-18T09:51:09.159Z,97889.83
2018-09-18T09:53:38.450Z,97890.29
2018-09-18T09:56:07.946Z,97886.66
2018-09-18T09:58:37.279Z,97881.77
2018-09-18T10:01:11.837Z,97885.95
2018-09-18T10:03:41.289Z,97878.84
2018-09-18T10:06:10.562Z,97881.94
2018-09-18T10:08:40.002Z,97876.97
2018-09-18T10:11:09.367Z,97880.91
2018-09-18T10:13:38.778Z,97878.26
2018-09-18T10:16:08.036Z,97876.57
2018-09-18T10:18:37.359Z,97877.95
2018-09-18T10:21:06.728Z,97876.81
2018-09-18T10:23:36.119Z,97879.95
2018-09-18T10:26:05.507Z,97880.20
2018-09-18T10:28:34.806Z,97875.83
2018-09-18T10:31:04.070Z,97872.27
2018-09-18T10:33:33.429Z,97874.96
2018-09-18T10:36:02.734Z,97870.12
2018-09-18T10:38:32.044Z,97872.86
2018-09-18T10:41:01.379Z,97869.75
2018-09-18T10:43:30.519Z,97867.98
2018-09-18T10:45:59.708Z,97864.31
2018-09-18T10:48:28.994Z,97858.96
2018-09-18T10:50:58.222Z,97853.13
2018-09-18T10:53:27.498Z,97858.47
2018-09-18T10:55:56.778Z,97856.38
2018-09-18T10:58:26.109Z,97852.02
2018-09-18T11:00:55.410Z,97844.85
2018-09-18T11:03:24.674Z,97854.30
2018-09-18T11:05:54.002Z,97852.83
2018-09-18T11:08:23.200Z,97846.25
2018-09-18T11:10:52.512Z,97844.48
2018-09-18T11:13:21.682Z,97840.90
2018-09-18T11:15:50.959Z,97837.70
2018-09-18T11:18:20.166Z,97842.00
2018-09-18T11:20:49.465Z,97840.59
2018-09-18T11:23:18.845Z,97836.68
2018-09-18T11:25:48.236Z,97842.24
2018-09-18T11:28:17.473Z,97834.50
2018-09-18T11:30:46.912Z,97845.64
2018-09-18T11:33:16.150Z,97837.70
2018-09-18T11:35:45.687Z,97841.06
2018-09-18T11:38:14.906Z,97834.66
2018-09-18T11:40:44.219Z,97832.89
2018-09-18T11:43:13.474Z,97829.91
2018-09-18T11:45:42.837Z,97827.58
2018-09-18T11:48:12.144Z,97819.58
2018-09-18T11:50:41.439Z,97823.24
2018-09-18T11:53:10.713Z,97820.38
2018-09-18T11:55:40.035Z,97818.05
2018-09-18T11:58:09.298Z,97821.22
2018-09-18T12:00:38.619Z,97816.61
2018-09-18T12:03:07.978Z,97819.11
2018-09-18T12:05:38.393Z,97821.22
2018-09-18T12:08:07.767Z,97816.66
2018-09-18T12:10:37.018Z,97813.17
2018-09-18T12:13:06.270Z,97810.98
2018-09-18T12:15:35.530Z,97809.28
2018-09-18T12:18:04.845Z,97808.20
2018-09-18T12:20:34.203Z,97804.31
2018-09-18T12:23:05.122Z,97800.66
2018-09-18T12:25:34.454Z,97800.16
2018-09-18T12:28:03.850Z,97796.52
2018-09-18T12:30:33.150Z,97799.16
2018-09-18T12:33:02.411Z,97791.78
2018-09-18T12:35:31.767Z,97792.62
2018-09-18T12:38:01.011Z,97793.11
2018-09-18T12:40:30.385Z,97794.31
2018-09-18T12:42:59.718Z,97792.03
2018-09-18T12:45:29.043Z,97785.26
2018-09-18T12:47:58.359Z,97784.19
2018-09-18T12:50:27.751Z,97785.08
2018-09-18T12:52:56.931Z,97783.60
2018-09-18T12:55:26.219Z,97780.36
2018-09-18T12:57:55.717Z,97782.69
2018-09-18T13:00:25.034Z,97773.77
2018-09-18T13:02:54.470Z,97779.64
2018-09-18T13:05:23.759Z,97778.94
2018-09-18T13:07:53.157Z,97778.17
2018-09-18T13:10:22.441Z,97769.52
2018-09-18T13:12:51.807Z,97763.14
2018-09-18T13:15:21.081Z,97758.25
2018-09-18T13:17:50.368Z,97759.33
2018-09-18T13:20:19.664Z,97759.42
2018-09-18T13:22:49.017Z,97761.48
2018-09-18T13:25:18.303Z,97755.45
2018-09-18T13:27:47.643Z,97757.79
2018-09-18T13:30:16.857Z,97749.70
2018-09-18T13:32:46.206Z,97742.64
2018-09-18T13:35:15.442Z,97742.52
2018-09-18T13:37:44.749Z,97744.17
2018-09-18T13:40:13.986Z,97740.61
2018-09-18T13:42:43.250Z,97737.63
2018-09-18T13:45:12.605Z,97731.91
2018-09-18T13:47:41.896Z,97729.80
2018-09-18T13:50:11.232Z,97735.10
2018-09-18T13:52:40.429Z,97738.34
2018-09-18T13:55:09.656Z,97734.45
2018-09-18T13:57:38.961Z,97724.58
2018-09-18T14:00:08.235Z,97736.78
2018-09-18T14:02:37.449Z,97718.14
2018-09-18T14:05:06.774Z,97720.13
2018-09-18T14:07:36.016Z,97717.48
2018-09-18T14:10:05.277Z,97720.66
2018-09-18T14:12:34.512Z,97712.96
2018-09-18T14:15:03.772Z,97719.95
2018-09-18T14:17:33.074Z,97720.09
2018-09-18T14:20:02.864Z,97718.45
2018-09-18T14:22:32.067Z,97723.15
2018-09-18T14:25:01.444Z,97715.06
2018-09-18T14:27:30.943Z,97710.62
2018-09-18T14:30:00.315Z,97713.08
2018-09-18T14:32:29.555Z,97710.15
2018-09-18T14:34:58.839Z,97709.46
2018-09-18T14:37:28.110Z,97708.53
2018-09-18T14:39:57.358Z,97702.66
2018-09-18T14:42:26.654Z,97705.84
2018-09-18T14:44:55.811Z,97708.53
2018-09-18T14:47:25.077Z,97708.20
2018-09-18T14:49:54.367Z,97714.02
2018-09-18T14:52:23.666Z,97718.67
2018-09-18T14:54:52.914Z,97711.27
2018-09-18T14:57:22.113Z,97718.36
2018-09-18T14:59:51.448Z,97721.92
2018-09-18T15:02:20.662Z,97716.28
2018-09-18T15:04:49.968Z,97721.45
2018-09-18T15:07:19.244Z,97719.52
2018-09-18T15:09:48.523Z,97715.94
2018-09-18T15:12:17.802Z,97712.64
2018-09-18T15:14:47.110Z,97713.06
2018-09-18T15:17:16.349Z,97719.17
2018-09-18T15:19:45.642Z,97717.59
2018-09-18T15:22:14.897Z,97722.67
2018-09-18T15:24:44.197Z,97726.66
2018-09-18T15:27:13.566Z,97728.58
2018-09-18T15:29:42.820Z,97729.97
2018-09-18T15:32:12.092Z,97730.80
2018-09-18T15:34:41.337Z,97732.21
2018-09-18T15:37:10.517Z,97736.81
2018-09-18T15:39:39.852Z,97733.62
2018-09-18T15:42:09.048Z,97731.58
2018-09-18T15:44:38.299Z,97740.84
2018-09-18T15:47:07.529Z,97740.25
2018-09-18T15:49:36.790Z,97744.63
2018-09-18T15:52:06.248Z,97748.17
2018-09-18T15:54:35.441Z,97750.56
2018-09-18T15:57:04.892Z,97752.11
2018-09-18T15:59:34.183Z,97755.56
2018-09-18T16:02:04.003Z,97753.06
2018-09-18T16:04:33.361Z,97758.59
2018-09-18T16:07:02.607Z,97754.74
2018-09-18T16:09:32.774Z,97757.15
2018-09-18T16:12:02.049Z,97755.64
2018-09-18T16:14:31.367Z,97765.00
2018-09-18T16:17:00.597Z,97765.39
2018-09-18T16:19:29.914Z,97766.66
2018-09-18T16:21:59.450Z,97769.59
2018-09-18T16:24:28.739Z,97769.16
2018-09-18T16:26:58.131Z,97761.92
2018-09-18T16:29:28.282Z,97761.80
2018-09-18T16:32:08.969Z,97763.05
2018-09-18T16:34:41.414Z,97761.51
2018-09-18T16:37:12.010Z,97766.20
2018-09-18T16:39:41.295Z,97771.23
2018-09-18T16:42:10.610Z,97785.44
2018-09-18T16:44:39.843Z,97784.91
2018-09-18T16:47:09.130Z,97772.88
2018-09-18T16:49:38.399Z,97771.44
2018-09-18T16:54:37.083Z,97762.93
2018-09-18T16:57:06.419Z,97760.30
2018-09-18T16:59:35.723Z,97760.20
2018-09-18T17:02:05.176Z,97767.24
2018-09-18T17:04:34.573Z,97766.80
2018-09-18T17:07:03.785Z,97760.55
2018-09-18T17:09:33.063Z,97766.57
2018-09-18T17:12:02.389Z,97757.34
2018-09-18T17:14:31.726Z,97764.88
2018-09-18T17:17:01.040Z,97769.88
2018-09-18T17:19:30.419Z,97773.87
2018-09-18T17:21:59.688Z,97768.25
2018-09-18T17:24:28.987Z,97762.30
2018-09-18T17:26:58.369Z,97755.26
2018-09-18T17:29:27.757Z,97761.80
2018-09-18T17:31:57.222Z,97762.61
2018-09-18T17:34:26.521Z,97761.45
2018-09-18T17:36:55.796Z,97772.45
2018-09-18T17:39:25.164Z,97784.13
2018-09-18T17:41:54.481Z,97786.53
2018-09-18T17:44:24.005Z,97789.84
2018-09-18T17:46:54.804Z,97790.05
2018-09-18T17:49:24.258Z,97794.08
2018-09-18T17:51:54.188Z,97802.39
2018-09-18T17:54:23.748Z,97796.95
2018-09-18T17:56:53.101Z,97793.80
2018-09-18T17:59:22.396Z,97800.90
2018-09-18T18:01:51.738Z,97799.62
2018-09-18T18:04:21.104Z,97798.37
2018-09-18T18:06:50.421Z,97797.06
2018-09-18T18:09:20.082Z,97810.64
2018-09-18T18:11:49.453Z,97827.63
2018-09-18T18:14:18.758Z,97838.73
2018-09-18T18:16:48.081Z,97859.41
2018-09-18T18:19:17.509Z,97857.39
2018-09-18T18:21:47.131Z,97861.81
2018-09-18T18:24:16.624Z,97875.22
2018-09-18T18:26:45.970Z,97877.66
2018-09-18T18:29:15.265Z,97875.52
2018-09-18T18:31:44.587Z,97877.02
2018-09-18T18:34:13.853Z,97887.48
2018-09-18T18:36:48.960Z,97896.58
2018-09-18T18:39:18.418Z,97903.34
2018-09-18T18:41:52.760Z,97885.64
2018-09-18T18:44:22.040Z,97903.98
2018-09-18T18:46:51.343Z,97894.89
2018-09-18T18:49:20.664Z,97901.60
2018-09-18T18:51:49.950Z,97900.89
2018-09-18T18:54:19.285Z,97909.33
2018-09-18T18:56:50.518Z,97908.47
2018-09-18T18:59:21.038Z,97905.56
2018-09-18T19:01:50.691Z,97903.66
2018-09-18T19:04:22.923Z,97909.37
2018-09-18T19:06:52.462Z,97911.06
2018-09-18T19:09:21.792Z,97913.47
2018-09-18T19:11:51.098Z,97928.50
2018-09-18T19:14:20.466Z,97932.28
2018-09-18T19:16:49.762Z,97928.80
2018-09-18T19:19:19.103Z,97922.72
2018-09-18T19:21:48.340Z,97916.41
2018-09-18T19:24:22.495Z,97908.52
2018-09-18T19:26:54.914Z,97896.55
2018-09-18T19:29:24.292Z,97895.69
2018-09-18T19:31:53.535Z,97892.98
2018-09-18T19:34:22.836Z,97894.86
2018-09-18T19:36:59.190Z,97903.98
2018-09-18T19:39:28.679Z,97911.20
2018-09-18T19:41:57.936Z,97912.52
2018-09-18T19:44:27.244Z,97913.93
2018-09-18T19:46:58.035Z,97909.34
2018-09-18T19:49:29.320Z,97910.55
2018-09-18T19:51:58.614Z,97912.28
2018-09-18T19:54:28.082Z,97910.85
2018-09-18T19:56:57.414Z,97900.36
2018-09-18T19:59:27.818Z,97901.75
2018-09-18T20:01:57.071Z,97909.32
2018-09-18T20:04:26.422Z,97913.88
2018-09-18T20:06:55.726Z,97916.45
2018-09-18T20:09:25.140Z,97921.88
2018-09-18T20:11:54.394Z,97925.63
2018-09-18T20:14:23.677Z,97925.08
2018-09-18T20:16:53.081Z,97932.75
2018-09-18T20:19:22.519Z,97927.71
2018-09-18T20:21:51.858Z,97941.16
2018-09-18T20:24:21.175Z,97938.38
2018-09-18T20:26:50.469Z,97944.95
2018-09-18T20:29:19.750Z,97952.00
2018-09-18T20:31:49.110Z,97954.58
2018-09-18T20:34:18.439Z,97954.05
2018-09-18T20:36:47.786Z,97948.25
2018-09-18T20:39:17.167Z,97947.92
2018-09-18T20:41:46.469Z,97952.74
2018-09-18T20:44:15.837Z,97959.98
2018-09-18T20:46:45.199Z,97962.36
2018-09-18T20:49:14.572Z,97968.86
2018-09-18T20:51:43.848Z,97969.41
2018-09-18T20:54:13.130Z,97978.80
2018-09-18T20:56:42.425Z,97976.96
2018-09-18T20:59:11.906Z,97980.65
2018-09-18T21:01:40.896Z,97980.03
2018-09-18T21:04:10.158Z,97982.94
2018-09-18T21:06:39.440Z,97991.06
2018-09-18T21:09:09.837Z,97977.02
2018-09-18T21:11:39.182Z,97977.62
2018-09-18T21:14:09.118Z,97980.98
2018-09-18T21:16:38.386Z,97975.76
2018-09-18T21:19:07.722Z,97972.63
2018-09-18T21:21:37.080Z,97975.38
2018-09-18T21:24:06.439Z,97983.30
2018-09-18T21:26:35.687Z,97979.35
2018-09-18T21:29:05.109Z,97988.37
2018-09-18T21:31:34.539Z,97977.89
2018-09-18T21:34:03.886Z,97982.31
2018-09-18T21:36:33.316Z,97978.80
2018-09-18T21:39:02.559Z,97978.55
2018-09-18T21:41:31.788Z,97968.30
2018-09-18T21:44:01.063Z,97968.19
2018-09-18T21:46:30.294Z,97969.04
2018-09-18T21:48:59.532Z,97975.11
2018-09-18T21:51:28.772Z,97981.58
2018-09-18T21:53:58.013Z,97985.65
2018-09-18T21:56:27.316Z,97985.45
2018-09-18T21:58:56.589Z,97979.79
2018-09-18T22:01:25.852Z,97981.21
2018-09-18T22:03:55.013Z,97978.12
2018-09-18T22:06:24.282Z,97972.72
2018-09-18T22:08:53.526Z,97970.59
2018-09-18T22:11:22.732Z,97964.71
2018-09-18T22:13:52.039Z,97970.62
2018-09-18T22:16:21.254Z,97972.47
2018-09-18T22:18:50.478Z,97972.16
2018-09-18T22:21:19.695Z,97976.38
2018-09-18T22:23:49.019Z,97975.04
2018-09-18T22:26:18.391Z,97976.07
2018-09-18T22:28:48.002Z,97979.88
2018-09-18T22:31:17.309Z,97980.85
2018-09-18T22:33:46.613Z,97973.09
2018-09-18T22:36:15.863Z,97972.80
2018-09-18T22:38:45.114Z,97977.87
2018-09-18T22:41:14.430Z,97979.53
2018-09-18T22:43:43.743Z,97982.72
2018-09-18T22:46:12.955Z,97983.59
2018-09-18T22:48:42.271Z,97979.59
2018-09-18T22:51:11.466Z,97982.19
2018-09-18T22:53:40.808Z,97976.78
2018-09-18T22:56:10.183Z,97979.48
2018-09-18T22:58:39.637Z,97978.94
2018-09-18T23:01:08.864Z,97981.50
2018-09-18T23:03:38.123Z,97987.66
2018-09-18T23:06:07.406Z,97990.06
2018-09-18T23:08:36.633Z,97992.70
2018-09-18T23:11:05.882Z,97991.16
2018-09-18T23:13:35.108Z,97995.47
2018-09-18T23:16:04.386Z,97992.08
2018-09-18T23:18:33.617Z,97995.53
2018-09-18T23:21:02.865Z,97996.48
2018-09-18T23:23:32.111Z,97999.34
2018-09-18T23:26:01.356Z,98000.91
2018-09-18T23:28:30.676Z,97998.95
2018-09-18T23:30:59.966Z,98003.44
2018-09-18T23:33:29.187Z,98009.78
2018-09-18T23:35:58.411Z,98010.27
2018-09-18T23:38:27.674Z,98011.80
2018-09-18T23:40:56.909Z,98009.81
2018-09-18T23:43:26.134Z,98009.47
2018-09-18T23:45:55.373Z,98011.91
2018-09-18T23:48:24.565Z,98010.17
2018-09-18T23:50:53.795Z,98015.33
2018-09-18T23:53:23.029Z,98008.62
2018-09-18T23:55:52.290Z,98009.85
2018-09-18T23:58:21.580Z,98008.91
